• Join FlightAware (Why Join?)
  • Login
  • US Flag 
Trick or treat! (Boo!!) 
03:18PM EDT


 

Airport Tracker/Info


-or-


 

Live Flight TrackerFlight Track Log ✈ N9009Y ✈ 17-Mar-2014 ✈ X58 - KDAB

Flight Track Log - Related Links

Times and Time Zones

All times are in EDT time to prevent confusion due to time zone crossing. See the N9009Y flight status page for this flight to view local times or setup timezone preferences in your user account.

Time Position Orientation Groundspeed Altitude Reporting Facility
EDT Latitude Longitude Course Direction KTS MPH feet Rate Location/Type
07:09AM 26.6408 -80.2925 347° North 173 199 4,400  Level Miami Center
07:10AM 26.6894 -80.3019 350° North 178 205 4,500  Climbing Miami Center
07:11AM 27.4080 -80.5365 340° North  Level FlightAware Approximate
07:11AM 26.7400 -80.3131 349° North 184 212 4,500  Level Miami Center
07:12AM 27.4445 -80.5511 340° North  Level FlightAware Approximate
07:12AM 26.7908 -80.3264 347° North 184 212 4,500  Level Miami Center
07:13AM 27.4811 -80.5658 340° North  Level FlightAware Approximate
07:13AM 26.8436 -80.3381 349° North 187 215 4,600  Level Miami Center
07:14AM 27.5188 -80.5762 347° North  Level FlightAware Approximate
07:14AM 26.8914 -80.3508 347° North 182 209 4,600  Level Miami Center
07:15AM 27.5565 -80.5863 347° North  Level FlightAware Approximate
07:15AM 26.9419 -80.3625 348° North 181 208 4,800  Level Miami Center
07:16AM 26.9878 -80.3722 349° North 178 205 4,900 180 Climbing Miami Center
07:17AM 27.0372 -80.3803 352° North 171 197 5,200 300 Climbing Miami Center
07:18AM 27.0842 -80.3886 351° North 167 192 5,600 300 Climbing Miami Center
07:19AM 27.1253 -80.3967 350° North 161 185 5,900 420 Climbing Miami Center
07:20AM 27.1686 -80.4042 351° North 149 171 6,500 240 Climbing Miami Center
07:22AM 27.2100 -80.4106 352° North 152 175 6,500  Level Miami Center
07:23AM 27.2633 -80.4078 North 182 209 6,600 60 Climbing Miami Center
07:24AM 27.3158 -80.4125 355° North 181 208 6,700 -60 Climbing Miami Center
07:25AM 27.3656 -80.4178 355° North 185 213 6,500 -120 Descending Miami Center
07:26AM 27.4194 -80.4306 348° North 189 217 6,500 -60 Level Miami Center
07:27AM 27.4728 -80.4444 347° North 189 217 6,400 -60 Descending Miami Center
07:28AM 27.5225 -80.4528 352° North 188 216 6,400  Level Miami Center
07:29AM 27.5747 -80.4642 349° North 187 215 6,400 -120 Level Miami Center
07:30AM 27.6250 -80.4708 353° North 187 215 6,200 -240 Descending Miami Center
07:31AM 27.6811 -80.4781 353° North 190 219 6,000 -180 Descending Miami Center
07:32AM 27.7347 -80.4942 345° North 190 219 5,900 -300 Descending Miami Center
07:33AM 27.7842 -80.5117 343° North 191 220 5,500 -300 Descending Miami Center
07:34AM 27.8383 -80.5292 344° North 193 222 5,400 -120 Descending Miami Center
07:35AM 27.8911 -80.5475 343° North 192 221 5,300  Descending Miami Center
07:36AM 27.9367 -80.5681 338° Northwest 187 215 5,400  Climbing Miami Center
07:37AM 27.9867 -80.5842 344° North 181 208 5,300  Descending Miami Center
07:38AM 28.0411 -80.5925 352° North 188 216 5,400  Climbing Miami Center
07:39AM 28.0892 -80.6075 345° North 187 215 5,400  Level Miami Center
07:40AM 28.1358 -80.6211 346° North 185 213 5,400  Level Miami Center
07:41AM 28.1817 -80.6414 339° North 183 211 5,500  Climbing Miami Center
07:42AM 28.2333 -80.6667 337° Northwest 180 207 5,500  Level Orlando TRACON
07:43AM 28.2833 -80.6833 344° North 182 209 5,500  Level Orlando TRACON
07:44AM 28.3167 -80.7000 336° Northwest 183 211 5,500 -60 Level Orlando TRACON
07:45AM 28.3833 -80.7167 348° North 186 214 5,400  Descending Orlando TRACON
07:46AM 28.4333 -80.7333 344° North 182 209 5,500 -60 Climbing Orlando TRACON
07:47AM 28.4667 -80.7667 319° Northwest 183 211 5,300 -120 Descending Orlando TRACON
07:48AM 28.5167 -80.7833 344° North 192 221 5,300 -120 Level Orlando TRACON
07:49AM 28.5833 -80.8000 348° North 193 222 5,100 -240 Descending Orlando TRACON
07:50AM 28.6333 -80.8000 360° North 204 235 4,900 -360 Descending Orlando TRACON
07:51AM 28.6833 -80.8167 344° North 205 236 4,500 -240 Descending Orlando TRACON
07:52AM 28.7783 -80.8342 351° North 199 229 4,400 -120 Descending Jacksonville Center
07:53AM 28.8325 -80.8403 354° North 200 230 4,200 -300 Descending Jacksonville Center
07:54AM 28.8892 -80.8483 353° North 206 237 3,800 -420 Descending Jacksonville Center
07:55AM 28.9456 -80.8614 349° North 204 235 3,400 -360 Descending Jacksonville Center
07:56AM 29.0000 -80.8722 350° North 205 236 3,100 -360 Descending Jacksonville Center
07:57AM 29.0567 -80.8903 344° North 198 228 2,700 -420 Descending Jacksonville Center
07:59AM 29.1133 -80.9103 343° North 203 234 2,300 -420 Descending Jacksonville Center
08:00AM 29.1639 -80.9378 335° Northwest 207 238 1,900 -300 Descending Jacksonville Center
08:01AM 29.2122 -80.9656 333° Northwest 193 222 1,700 -360 Descending Jacksonville Center
08:02AM 29.2044 -80.9989 255° West 130 150 1,200 -540 Descending Jacksonville Center
08:03AM 29.1925 -81.0278 245° Southwest 86 99 700 -540 Descending Jacksonville Center
08:05AM 29.1667 -81.0500 297° West  Level FlightAware Approximate
08:12AM 29.1799 -81.0581 297° West  Level Estimated
08:13AM 29.1799 -81.0581 297° West  Level Estimated
08:14AM 29.1799 -81.0581 297° West  Level Estimated
08:15AM 29.1799 -81.0581 297° West  Level Estimated